Time;durP1;ratioP1;P1;durP2;ratioP2;P2;SDS_P1;SDS_P2;PMS_P1;PMS_P2;Temp;Humidity;BMP_temperature;BMP_pressure;BME280_temperature;BME280_humidity;BME280_pressure;Samples;Min_cycle;Max_cycle;Signal;HPM_P1;HPM_P2
2022/11/05 00:10:54;;;;;;;20.63;13.32;;;;;;;;;;4985444;28;20025;-72
2022/11/05 00:19:07;;;;;;;21.67;13.95;;;;;;;;;;5010467;28;20017;-72
2022/11/05 00:27:01;;;;;;;21.70;13.82;;;;;;;;;;5001864;28;20053;-73
2022/11/05 00:29:27;;;;;;;22.60;13.23;;;;;;;;;;4993946;28;20046;-72
2022/11/05 00:31:52;;;;;;;22.40;13.73;;;;;;;;;;4991234;28;20192;-75
2022/11/05 00:34:18;;;;;;;21.90;12.85;;;;;;;;;;4991095;28;20045;-73
2022/11/05 00:36:43;;;;;;;20.88;11.98;;;;;;;;;;4991163;28;20109;-75
2022/11/05 00:39:09;;;;;;;22.45;13.18;;;;;;;;;;4990927;28;20503;-72
2022/11/05 00:41:34;;;;;;;18.90;11.90;;;;;;;;;;4991255;28;20035;-73
2022/11/05 00:46:43;;;;;;;21.70;12.27;;;;;;;;;;4991197;28;20133;-75
2022/11/05 00:52:54;;;;;;;21.13;12.30;;;;;;;;;;4990163;28;20037;-75
2022/11/05 00:54:38;;;;;;;21.73;13.02;;;;;;;;;;4973194;28;20042;-74
2022/11/05 00:57:03;;;;;;;22.90;11.98;;;;;;;;;;4973535;28;20023;-76
2022/11/05 00:59:29;;;;;;;23.85;12.20;;;;;;;;;;4973715;28;20452;-76
2022/11/05 01:01:54;;;;;;;21.25;12.00;;;;;;;;;;4973526;28;20038;-76
2022/11/05 01:04:20;;;;;;;21.63;12.65;;;;;;;;;;4973430;28;20464;-75
2022/11/05 01:06:45;;;;;;;18.20;10.88;;;;;;;;;;4973464;28;20027;-76
2022/11/05 01:09:11;;;;;;;19.67;11.63;;;;;;;;;;4973417;28;20038;-75
2022/11/05 01:11:36;;;;;;;18.83;11.07;;;;;;;;;;4973469;28;20126;-76
2022/11/05 01:14:04;;;;;;;15.52;10.20;;;;;;;;;;4973340;28;20030;-74
2022/11/05 01:16:30;;;;;;;18.65;10.93;;;;;;;;;;4973310;28;20026;-76
2022/11/05 01:18:56;;;;;;;17.60;10.95;;;;;;;;;;4973294;28;20022;-75
2022/11/05 01:21:21;;;;;;;18.85;10.82;;;;;;;;;;4973212;28;20435;-76
2022/11/05 01:23:47;;;;;;;20.67;10.80;;;;;;;;;;4973053;28;20472;-76
2022/11/05 01:26:12;;;;;;;17.52;10.20;;;;;;;;;;4973131;28;20035;-76
2022/11/05 01:28:38;;;;;;;19.98;10.25;;;;;;;;;;4973097;28;20404;-76
2022/11/05 01:31:03;;;;;;;19.05;9.95;;;;;;;;;;4991774;28;20034;-76
2022/11/05 01:33:29;;;;;;;14.57;9.23;;;;;;;;;;4992475;28;20080;-76
2022/11/05 01:35:54;;;;;;;20.67;9.48;;;;;;;;;;4992512;28;20108;-76
2022/11/05 01:38:20;;;;;;;14.75;8.88;;;;;;;;;;4991079;28;20472;-76
2022/11/05 01:40:45;;;;;;;20.40;8.93;;;;;;;;;;4992386;28;20042;-76
2022/11/05 01:43:19;;;;;;;15.93;8.57;;;;;;;;;;4992454;28;20525;-71
2022/11/05 01:45:51;;;;;;;16.20;9.18;;;;;;;;;;4992396;28;20033;-73
2022/11/05 01:48:34;;;;;;;13.35;7.82;;;;;;;;;;4992481;28;20026;-76
2022/11/05 01:51:06;;;;;;;13.45;8.15;;;;;;;;;;4992359;28;20442;-71
2022/11/05 01:53:44;;;;;;;12.45;7.68;;;;;;;;;;4992211;28;20114;-73
2022/11/05 01:56:13;;;;;;;14.90;8.50;;;;;;;;;;4992489;28;20026;-74
2022/11/05 01:58:44;;;;;;;15.75;7.95;;;;;;;;;;4992304;28;20022;-74
2022/11/05 02:01:11;;;;;;;16.30;8.10;;;;;;;;;;4992355;28;20042;-75
2022/11/05 02:03:36;;;;;;;17.67;8.15;;;;;;;;;;4994499;28;20084;-74
2022/11/05 02:06:03;;;;;;;13.10;7.85;;;;;;;;;;4996557;28;20035;-76
2022/11/05 02:09:03;;;;;;;12.50;7.63;;;;;;;;;;4996590;28;20034;-75
2022/11/05 02:11:29;;;;;;;11.20;6.95;;;;;;;;;;4996796;28;20026;-70
2022/11/05 02:13:55;;;;;;;11.77;6.90;;;;;;;;;;4996625;28;20490;-73
2022/11/05 02:16:42;;;;;;;18.63;7.30;;;;;;;;;;4996589;28;20089;-75
2022/11/05 02:19:38;;;;;;;16.02;7.38;;;;;;;;;;4996530;28;20084;-74
2022/11/05 02:22:37;;;;;;;12.45;6.97;;;;;;;;;;4996263;28;20041;-76
2022/11/05 02:25:27;;;;;;;13.00;7.30;;;;;;;;;;4996193;28;20399;-75
2022/11/05 02:28:29;;;;;;;19.85;8.00;;;;;;;;;;4995527;28;20054;-72
2022/11/05 02:31:07;;;;;;;13.02;6.95;;;;;;;;;;4995417;28;20034;-72
2022/11/05 02:34:13;;;;;;;20.55;7.78;;;;;;;;;;4995866;28;20030;-75
2022/11/05 02:36:53;;;;;;;14.88;7.10;;;;;;;;;;4995776;28;20102;-76
2022/11/05 02:39:46;;;;;;;16.95;7.50;;;;;;;;;;4996288;28;20022;-74
2022/11/05 02:42:18;;;;;;;10.50;6.45;;;;;;;;;;4995665;28;20278;-73
2022/11/05 02:44:51;;;;;;;14.95;6.50;;;;;;;;;;4995583;28;20035;-73
2022/11/05 02:47:23;;;;;;;13.10;7.18;;;;;;;;;;4995664;28;20023;-72
2022/11/05 02:50:07;;;;;;;10.88;6.03;;;;;;;;;;4995667;28;20092;-72
2022/11/05 02:52:59;;;;;;;13.35;6.60;;;;;;;;;;4995895;28;20061;-71
2022/11/05 02:55:44;;;;;;;11.52;6.35;;;;;;;;;;4995804;28;20129;-74
2022/11/05 02:58:09;;;;;;;9.48;5.53;;;;;;;;;;4996085;28;20101;-75
2022/11/05 03:00:44;;;;;;;16.00;6.97;;;;;;;;;;4995572;28;20095;-75
2022/11/05 03:03:36;;;;;;;13.85;5.45;;;;;;;;;;4995710;28;20030;-76
2022/11/05 03:06:04;;;;;;;13.20;5.32;;;;;;;;;;4995424;28;20487;-74
2022/11/05 03:08:51;;;;;;;12.38;4.45;;;;;;;;;;4995231;28;20026;-71
2022/11/05 03:11:20;;;;;;;8.85;4.75;;;;;;;;;;4995543;28;20607;-76
2022/11/05 03:13:57;;;;;;;9.52;4.85;;;;;;;;;;4994896;28;20392;-73
2022/11/05 03:16:29;;;;;;;12.50;5.03;;;;;;;;;;4995077;28;20076;-73
2022/11/05 03:19:01;;;;;;;12.38;5.28;;;;;;;;;;4994893;28;20037;-75
2022/11/05 03:21:45;;;;;;;10.82;5.55;;;;;;;;;;4995217;28;20049;-76
2022/11/05 03:24:26;;;;;;;10.10;4.63;;;;;;;;;;4995620;28;20034;-74
2022/11/05 03:27:33;;;;;;;9.60;4.75;;;;;;;;;;4994258;28;20372;-75
2022/11/05 03:30:03;;;;;;;11.63;4.43;;;;;;;;;;4973345;28;20030;-70
2022/11/05 03:32:31;;;;;;;;;;;;;;;;;;4974102;28;20031;-76
2022/11/05 03:35:19;;;;;;;9.88;4.20;;;;;;;;;;4973550;28;20342;-72
2022/11/05 03:37:49;;;;;;;9.82;4.10;;;;;;;;;;4973652;28;20178;-75
2022/11/05 03:40:18;;;;;;;12.35;4.32;;;;;;;;;;4973769;28;20031;-73
2022/11/05 03:42:48;;;;;;;7.65;3.53;;;;;;;;;;4973573;28;20030;-75
2022/11/05 03:45:19;;;;;;;9.60;4.18;;;;;;;;;;4973696;28;20046;-73
2022/11/05 03:47:47;;;;;;;9.38;4.00;;;;;;;;;;4972798;28;20038;-75
2022/11/05 03:50:15;;;;;;;10.38;4.05;;;;;;;;;;4972698;28;20030;-76
2022/11/05 03:52:47;;;;;;;10.90;3.58;;;;;;;;;;4972733;28;20038;-73
2022/11/05 03:55:13;;;;;;;9.05;3.67;;;;;;;;;;4972572;28;20038;-75
2022/11/05 03:57:42;;;;;;;10.55;3.90;;;;;;;;;;4973154;28;20507;-75
2022/11/05 04:00:09;;;;;;;17.63;7.82;;;;;;;;;;4979077;28;20113;-75
2022/11/05 04:02:36;;;;;;;12.73;4.03;;;;;;;;;;4994573;28;20431;-75
2022/11/05 04:05:02;;;;;;;10.95;3.55;;;;;;;;;;4994691;28;20026;-75
2022/11/05 04:18:23;;;;;;;9.75;3.97;;;;;;;;;;4993722;28;20130;-75
2022/11/05 04:26:22;;;;;;;12.38;4.18;;;;;;;;;;4993653;28;20041;-75
2022/11/05 04:31:34;;;;;;;12.85;3.55;;;;;;;;;;4993935;28;20037;-75
2022/11/05 04:34:00;;;;;;;13.18;3.10;;;;;;;;;;4994244;28;20468;-75
2022/11/05 04:36:25;;;;;;;7.20;3.97;;;;;;;;;;4993914;28;20093;-75
2022/11/05 04:38:51;;;;;;;14.70;3.33;;;;;;;;;;4994284;28;20033;-75
2022/11/05 04:41:17;;;;;;;10.02;3.83;;;;;;;;;;4993774;28;20030;-73
2022/11/05 04:43:43;;;;;;;11.95;3.45;;;;;;;;;;4993483;28;20057;-75
2022/11/05 04:46:09;;;;;;;15.10;3.60;;;;;;;;;;4993337;28;20030;-74
2022/11/05 04:48:35;;;;;;;10.05;3.45;;;;;;;;;;4993312;28;20128;-76
2022/11/05 04:51:00;;;;;;;17.65;3.53;;;;;;;;;;4993546;28;20039;-76
2022/11/05 04:53:26;;;;;;;12.07;3.08;;;;;;;;;;4993672;28;20050;-75
2022/11/05 04:55:52;;;;;;;16.67;3.42;;;;;;;;;;4993806;28;20110;-75
2022/11/05 04:58:17;;;;;;;10.85;3.35;;;;;;;;;;4993697;28;20034;-76
2022/11/05 05:00:43;;;;;;;12.48;3.55;;;;;;;;;;4993541;28;20030;-77
2022/11/05 05:03:08;;;;;;;12.43;3.65;;;;;;;;;;4993582;28;20451;-75
2022/11/05 05:05:33;;;;;;;10.10;3.70;;;;;;;;;;4993514;28;20022;-73
2022/11/05 05:08:04;;;;;;;6.82;3.05;;;;;;;;;;4993585;28;20468;-75
2022/11/05 05:10:30;;;;;;;12.73;3.50;;;;;;;;;;4993369;28;20491;-75
2022/11/05 05:12:56;;;;;;;13.68;3.72;;;;;;;;;;4993629;28;20027;-75
2022/11/05 05:15:22;;;;;;;8.40;3.17;;;;;;;;;;4993263;28;20034;-74
2022/11/05 05:17:51;;;;;;;9.18;3.10;;;;;;;;;;4992944;28;20123;-75
2022/11/05 05:23:01;;;;;;;13.45;3.63;;;;;;;;;;4992870;28;20434;-75
2022/11/05 05:25:26;;;;;;;16.48;3.47;;;;;;;;;;4992648;28;20039;-76
2022/11/05 05:27:55;;;;;;;16.17;3.72;;;;;;;;;;4993071;28;20053;-71
2022/11/05 05:30:20;;;;;;;9.32;2.85;;;;;;;;;;4992694;28;20501;-74
2022/11/05 05:32:45;;;;;;;9.88;3.30;;;;;;;;;;4993249;28;20116;-74
2022/11/05 05:35:11;;;;;;;9.18;3.05;;;;;;;;;;4993114;28;20542;-70
2022/11/05 05:37:37;;;;;;;13.27;3.17;;;;;;;;;;4993145;28;20027;-73
2022/11/05 05:40:03;;;;;;;9.50;2.83;;;;;;;;;;4993010;28;20031;-73
2022/11/05 05:42:28;;;;;;;10.13;3.00;;;;;;;;;;4992572;28;20104;-75
2022/11/05 05:44:54;;;;;;;13.52;3.20;;;;;;;;;;4992511;28;20026;-74
2022/11/05 05:47:19;;;;;;;11.65;4.22;;;;;;;;;;4992491;28;20562;-72
2022/11/05 05:49:45;;;;;;;13.93;3.60;;;;;;;;;;4992814;28;20442;-76
2022/11/05 05:52:10;;;;;;;13.35;3.30;;;;;;;;;;4993052;28;20089;-75
2022/11/05 05:54:36;;;;;;;15.05;4.00;;;;;;;;;;4992856;28;20455;-75
2022/11/05 05:57:02;;;;;;;11.82;3.22;;;;;;;;;;4993104;28;20027;-76
2022/11/05 05:59:27;;;;;;;12.52;3.40;;;;;;;;;;4992439;28;20039;-75
2022/11/05 06:01:53;;;;;;;12.07;3.22;;;;;;;;;;4992350;28;20475;-74
2022/11/05 06:04:18;;;;;;;7.95;2.92;;;;;;;;;;4992417;28;20022;-74
2022/11/05 06:06:45;;;;;;;10.82;3.42;;;;;;;;;;4992147;28;20026;-74
2022/11/05 06:09:12;;;;;;;11.40;3.67;;;;;;;;;;4992712;28;20034;-74
2022/11/05 06:11:37;;;;;;;11.05;4.07;;;;;;;;;;4992505;28;20108;-75
2022/11/05 06:14:03;;;;;;;12.48;4.38;;;;;;;;;;4992558;28;20475;-76
2022/11/05 06:16:34;;;;;;;7.05;2.63;;;;;;;;;;4992653;28;20027;-75
2022/11/05 06:18:59;;;;;;;11.60;2.78;;;;;;;;;;4992893;28;20034;-76
2022/11/05 06:21:25;;;;;;;12.45;3.03;;;;;;;;;;4993029;28;20081;-74
2022/11/05 06:23:50;;;;;;;9.27;2.55;;;;;;;;;;4992869;28;20089;-76
2022/11/05 06:26:17;;;;;;;9.15;3.05;;;;;;;;;;4992564;28;20033;-75
2022/11/05 06:28:43;;;;;;;9.63;3.20;;;;;;;;;;4991698;28;20129;-75
2022/11/05 06:31:09;;;;;;;12.98;3.13;;;;;;;;;;4992028;28;20121;-73
2022/11/05 06:33:35;;;;;;;10.80;3.10;;;;;;;;;;4992147;28;20101;-75
2022/11/05 06:36:01;;;;;;;11.85;2.88;;;;;;;;;;4992472;28;20117;-74
2022/11/05 06:38:28;;;;;;;9.90;2.92;;;;;;;;;;4992764;28;20395;-76
2022/11/05 06:40:56;;;;;;;10.43;2.97;;;;;;;;;;4992828;28;20057;-76
2022/11/05 06:43:21;;;;;;;7.03;2.63;;;;;;;;;;4992541;28;20092;-71
2022/11/05 06:45:47;;;;;;;12.07;2.80;;;;;;;;;;4992618;28;20035;-75
2022/11/05 06:48:12;;;;;;;11.02;2.50;;;;;;;;;;4992732;28;20018;-74
2022/11/05 06:50:42;;;;;;;7.80;2.85;;;;;;;;;;4995889;28;20085;-74
2022/11/05 06:53:07;;;;;;;13.25;2.80;;;;;;;;;;4996059;28;20037;-75
2022/11/05 06:55:33;;;;;;;13.65;2.90;;;;;;;;;;4995978;28;20387;-75
2022/11/05 06:57:58;;;;;;;10.70;2.53;;;;;;;;;;4995262;28;20030;-76
2022/11/05 07:00:24;;;;;;;8.18;2.60;;;;;;;;;;4992616;28;20488;-76
2022/11/05 07:02:50;;;;;;;9.32;2.33;;;;;;;;;;4975916;28;20146;-76
2022/11/05 07:05:16;;;;;;;6.70;2.40;;;;;;;;;;4975711;28;20473;-74
2022/11/05 07:07:43;;;;;;;8.90;3.13;;;;;;;;;;4976317;28;20042;-71
2022/11/05 07:10:17;;;;;;;14.63;2.90;;;;;;;;;;4983090;28;20045;-76
2022/11/05 07:12:43;;;;;;;9.23;2.65;;;;;;;;;;4995572;28;20045;-76
2022/11/05 07:15:10;;;;;;;10.13;2.67;;;;;;;;;;4995694;28;20384;-76
2022/11/05 07:17:36;;;;;;;14.27;2.47;;;;;;;;;;4995675;28;20026;-76
2022/11/05 07:20:03;;;;;;;12.07;4.65;;;;;;;;;;4995547;28;20058;-76
2022/11/05 07:22:29;;;;;;;11.77;2.80;;;;;;;;;;4995647;28;20359;-77
2022/11/05 07:24:54;;;;;;;8.07;2.67;;;;;;;;;;4995651;28;20032;-76
2022/11/05 07:27:20;;;;;;;10.45;2.58;;;;;;;;;;4995238;28;20018;-76
2022/11/05 07:29:45;;;;;;;7.45;2.97;;;;;;;;;;4994834;28;20050;-75
2022/11/05 07:32:10;;;;;;;9.05;2.33;;;;;;;;;;4995460;28;20803;-75
2022/11/05 07:34:36;;;;;;;12.85;2.58;;;;;;;;;;4995445;28;20441;-76
2022/11/05 07:37:01;;;;;;;16.52;2.47;;;;;;;;;;4995174;28;20033;-76
2022/11/05 07:39:27;;;;;;;10.93;2.40;;;;;;;;;;4995226;28;20547;-76
2022/11/05 07:41:56;;;;;;;11.02;2.55;;;;;;;;;;4995089;28;20030;-76
2022/11/05 07:44:22;;;;;;;8.85;2.40;;;;;;;;;;4994377;28;20117;-75
2022/11/05 07:46:49;;;;;;;9.30;2.20;;;;;;;;;;4994459;28;20106;-76
2022/11/05 07:49:15;;;;;;;10.52;2.47;;;;;;;;;;4994420;28;20030;-76
2022/11/05 07:51:40;;;;;;;16.70;2.35;;;;;;;;;;4994476;28;20034;-75
2022/11/05 07:54:06;;;;;;;10.07;2.45;;;;;;;;;;4994578;28;20117;-74
2022/11/05 07:56:31;;;;;;;7.68;2.38;;;;;;;;;;4994792;28;20026;-76
2022/11/05 07:58:57;;;;;;;6.38;1.83;;;;;;;;;;4995015;28;20026;-76
2022/11/05 08:01:22;;;;;;;15.13;2.80;;;;;;;;;;4993742;28;20038;-75
2022/11/05 08:03:48;;;;;;;17.27;2.80;;;;;;;;;;4994705;28;20026;-75
2022/11/05 08:06:13;;;;;;;7.53;2.17;;;;;;;;;;4994649;28;20113;-75
2022/11/05 08:08:39;;;;;;;9.38;2.25;;;;;;;;;;4994269;28;20084;-74
2022/11/05 08:11:06;;;;;;;12.48;2.70;;;;;;;;;;4994092;28;20387;-75
2022/11/05 08:13:32;;;;;;;14.05;2.72;;;;;;;;;;4994133;28;20049;-73
2022/11/05 08:15:58;;;;;;;12.15;2.33;;;;;;;;;;4993974;28;20506;-75
2022/11/05 08:18:30;;;;;;;7.40;2.10;;;;;;;;;;4993807;28;20482;-75
2022/11/05 08:21:01;;;;;;;15.95;3.13;;;;;;;;;;4994187;28;20380;-75
2022/11/05 08:23:27;;;;;;;13.65;3.35;;;;;;;;;;4994235;28;20483;-75
2022/11/05 08:25:52;;;;;;;16.50;3.80;;;;;;;;;;4994193;28;20034;-75
2022/11/05 08:28:21;;;;;;;11.02;3.17;;;;;;;;;;4993928;28;20403;-75
2022/11/05 08:30:54;;;;;;;10.52;2.95;;;;;;;;;;4993882;28;20034;-75
2022/11/05 08:33:21;;;;;;;9.05;2.25;;;;;;;;;;4994316;28;20304;-76
2022/11/05 08:35:47;;;;;;;8.10;2.20;;;;;;;;;;4994134;28;20026;-76
2022/11/05 08:38:14;;;;;;;6.78;1.85;;;;;;;;;;4993958;28;20045;-76
2022/11/05 08:40:42;;;;;;;6.88;2.00;;;;;;;;;;4994212;28;20030;-75
2022/11/05 08:43:09;;;;;;;10.35;2.13;;;;;;;;;;4993232;28;20022;-76
2022/11/05 08:45:35;;;;;;;14.18;2.47;;;;;;;;;;4993154;28;20037;-75
2022/11/05 08:48:10;;;;;;;6.22;1.77;;;;;;;;;;4993213;28;20575;-75
2022/11/05 08:50:37;;;;;;;7.50;1.95;;;;;;;;;;4993069;28;20031;-74
2022/11/05 08:53:03;;;;;;;10.88;2.30;;;;;;;;;;4993480;28;20030;-75
2022/11/05 08:55:30;;;;;;;9.05;2.10;;;;;;;;;;4993170;28;20439;-76
2022/11/05 08:57:56;;;;;;;8.80;2.30;;;;;;;;;;4994009;28;20023;-75
2022/11/05 09:00:22;;;;;;;7.13;2.08;;;;;;;;;;4993602;28;20030;-75
2022/11/05 09:02:48;;;;;;;6.50;2.15;;;;;;;;;;4993817;28;20030;-74
2022/11/05 09:05:13;;;;;;;9.05;2.00;;;;;;;;;;4993665;28;20026;-76
2022/11/05 09:07:39;;;;;;;5.50;2.08;;;;;;;;;;4993179;28;20034;-72
2022/11/05 09:10:05;;;;;;;10.60;2.65;;;;;;;;;;4993353;28;20026;-76
2022/11/05 09:12:30;;;;;;;6.38;1.70;;;;;;;;;;4992622;28;20072;-75
2022/11/05 09:14:56;;;;;;;4.88;1.70;;;;;;;;;;4992881;28;20384;-76
2022/11/05 09:17:21;;;;;;;7.85;2.00;;;;;;;;;;4992843;28;20066;-75
2022/11/05 09:19:47;;;;;;;9.68;1.90;;;;;;;;;;4993074;28;20026;-73
2022/11/05 09:22:13;;;;;;;8.05;1.75;;;;;;;;;;4993393;28;20150;-76
2022/11/05 09:24:39;;;;;;;8.05;1.80;;;;;;;;;;4993194;28;20076;-75
2022/11/05 09:27:06;;;;;;;7.70;1.60;;;;;;;;;;4992888;28;20022;-78
2022/11/05 09:29:31;;;;;;;10.57;1.88;;;;;;;;;;4985331;28;20069;-75
2022/11/05 09:31:57;;;;;;;8.20;1.77;;;;;;;;;;4988122;28;20066;-73
2022/11/05 09:34:22;;;;;;;9.60;1.77;;;;;;;;;;4984315;28;20030;-75
2022/11/05 09:36:48;;;;;;;11.60;1.80;;;;;;;;;;4986844;28;20014;-76
2022/11/05 09:39:13;;;;;;;5.40;1.40;;;;;;;;;;4986114;28;20388;-74
2022/11/05 09:41:42;;;;;;;10.73;2.03;;;;;;;;;;4982778;28;20102;-79
2022/11/05 09:44:23;;;;;;;7.18;1.40;;;;;;;;;;4982195;28;20456;-74
2022/11/05 09:46:53;;;;;;;7.72;2.10;;;;;;;;;;4982837;28;20049;-66
2022/11/05 09:49:41;;;;;;;5.95;1.65;;;;;;;;;;4982408;28;20019;-76
2022/11/05 09:52:15;;;;;;;4.50;1.23;;;;;;;;;;4982107;28;20046;-74
2022/11/05 09:54:40;;;;;;;5.82;1.33;;;;;;;;;;4979761;28;20480;-77
2022/11/05 09:57:13;;;;;;;6.70;1.27;;;;;;;;;;4983851;28;20030;-74
2022/11/05 09:59:45;;;;;;;10.40;1.95;;;;;;;;;;4981994;28;20019;-74
2022/11/05 10:02:18;;;;;;;7.43;1.48;;;;;;;;;;4973778;28;20022;-74
2022/11/05 10:04:47;;;;;;;10.77;1.52;;;;;;;;;;4973575;28;20031;-74
2022/11/05 10:07:17;;;;;;;7.75;1.90;;;;;;;;;;4973758;28;20041;-75
2022/11/05 10:09:47;;;;;;;5.75;1.20;;;;;;;;;;4973755;28;20031;-73
2022/11/05 10:12:44;;;;;;;6.85;1.58;;;;;;;;;;4992748;28;20081;-72
2022/11/05 10:15:17;;;;;;;8.75;1.48;;;;;;;;;;4993286;28;20092;-67
2022/11/05 10:17:51;;;;;;;6.55;1.80;;;;;;;;;;4993059;28;20472;-69
2022/11/05 10:20:33;;;;;;;10.88;1.90;;;;;;;;;;4992675;28;20042;-67
2022/11/05 10:23:07;;;;;;;7.95;1.58;;;;;;;;;;4993029;28;20094;-69
2022/11/05 10:25:37;;;;;;;8.05;1.95;;;;;;;;;;4996422;28;20432;-67
2022/11/05 10:28:05;;;;;;;7.75;1.95;;;;;;;;;;4996551;28;20046;-68
2022/11/05 10:30:30;;;;;;;6.05;1.63;;;;;;;;;;4996610;28;20034;-68
2022/11/05 10:33:00;;;;;;;3.97;1.08;;;;;;;;;;4996755;28;20526;-69
2022/11/05 10:35:29;;;;;;;6.78;1.60;;;;;;;;;;4996431;28;20053;-65
2022/11/05 10:37:55;;;;;;;5.35;1.35;;;;;;;;;;4996407;28;20439;-65
2022/11/05 10:40:27;;;;;;;8.40;2.03;;;;;;;;;;4996058;28;20030;-66
2022/11/05 10:43:03;;;;;;;5.10;1.50;;;;;;;;;;4996567;28;20373;-63
2022/11/05 10:45:35;;;;;;;6.38;1.50;;;;;;;;;;4996631;28;20046;-67
2022/11/05 10:48:13;;;;;;;7.03;1.50;;;;;;;;;;4996286;28;20549;-65
2022/11/05 10:50:40;;;;;;;9.27;1.63;;;;;;;;;;4996317;28;20113;-64
2022/11/05 10:53:13;;;;;;;6.05;1.35;;;;;;;;;;4996055;28;20030;-64
2022/11/05 10:55:48;;;;;;;6.93;1.83;;;;;;;;;;4996024;28;20040;-66
2022/11/05 10:58:16;;;;;;;6.95;1.33;;;;;;;;;;4996252;28;20026;-66
2022/11/05 11:00:44;;;;;;;4.72;1.20;;;;;;;;;;4996280;28;20034;-66
2022/11/05 11:03:34;;;;;;;6.20;1.48;;;;;;;;;;4996026;28;20030;-64
2022/11/05 11:06:03;;;;;;;6.57;1.60;;;;;;;;;;4995830;28;20088;-64
2022/11/05 11:08:32;;;;;;;5.43;1.58;;;;;;;;;;4995903;28;20026;-67
2022/11/05 11:11:02;;;;;;;6.80;1.63;;;;;;;;;;4995987;28;20361;-67
2022/11/05 11:13:49;;;;;;;11.52;2.08;;;;;;;;;;4996083;28;20096;-65
2022/11/05 11:16:22;;;;;;;6.93;1.80;;;;;;;;;;4995935;28;20058;-65
2022/11/05 11:18:59;;;;;;;10.48;1.83;;;;;;;;;;4995811;28;20426;-67
2022/11/05 11:21:26;;;;;;;5.78;1.60;;;;;;;;;;4996005;28;20062;-67
2022/11/05 11:23:57;;;;;;;6.88;1.40;;;;;;;;;;4995630;28;20054;-66
2022/11/05 11:26:26;;;;;;;8.35;1.77;;;;;;;;;;4994722;28;20117;-67
2022/11/05 11:29:05;;;;;;;9.55;1.73;;;;;;;;;;4995209;28;20050;-66
2022/11/05 11:31:36;;;;;;;7.10;1.67;;;;;;;;;;4995437;28;20038;-67
2022/11/05 11:34:04;;;;;;;6.88;1.60;;;;;;;;;;4995132;28;20034;-66
2022/11/05 11:36:44;;;;;;;7.97;1.30;;;;;;;;;;4995148;28;20057;-66
2022/11/05 11:39:16;;;;;;;11.38;1.65;;;;;;;;;;4995314;28;20022;-66
2022/11/05 11:41:44;;;;;;;7.00;1.33;;;;;;;;;;4995358;28;20053;-67
2022/11/05 11:44:25;;;;;;;8.25;1.42;;;;;;;;;;4995173;28;20033;-67
2022/11/05 11:46:54;;;;;;;9.55;1.65;;;;;;;;;;4994965;28;20022;-66
2022/11/05 11:49:40;;;;;;;5.50;1.08;;;;;;;;;;4995128;28;20133;-67
2022/11/05 11:52:27;;;;;;;8.02;1.42;;;;;;;;;;4995021;28;20070;-66
2022/11/05 11:55:05;;;;;;;7.68;1.38;;;;;;;;;;4994947;28;20084;-66
2022/11/05 11:57:42;;;;;;;6.05;1.25;;;;;;;;;;4995102;28;20022;-63
2022/11/05 12:00:08;;;;;;;7.43;1.83;;;;;;;;;;4995049;28;20033;-63
2022/11/05 12:02:41;;;;;;;7.82;1.20;;;;;;;;;;4994549;28;20476;-64
2022/11/05 12:05:25;;;;;;;7.38;1.27;;;;;;;;;;4995974;28;20026;-66
2022/11/05 12:07:58;;;;;;;9.82;1.55;;;;;;;;;;4994307;28;20100;-66
2022/11/05 12:10:39;;;;;;;9.35;1.33;;;;;;;;;;5009425;28;20026;-67
2022/11/05 12:13:19;;;;;;;7.53;1.73;;;;;;;;;;4983626;28;20352;-67
2022/11/05 12:16:09;;;;;;;5.90;1.00;;;;;;;;;;5004051;28;20057;-67
2022/11/05 12:18:37;;;;;;;5.05;1.42;;;;;;;;;;5011449;28;20025;-67
2022/11/05 12:21:06;;;;;;;7.57;1.20;;;;;;;;;;5015005;28;20034;-68
2022/11/05 12:24:07;;;;;;;9.27;1.33;;;;;;;;;;5014679;28;20109;-67
2022/11/05 12:27:03;;;;;;;4.68;1.20;;;;;;;;;;4973325;28;20548;-76
2022/11/05 12:29:56;;;;;;;8.40;1.40;;;;;;;;;;4966133;28;20150;-67
2022/11/05 12:32:40;;;;;;;7.78;1.10;;;;;;;;;;4966155;28;20035;-66
2022/11/05 12:35:30;;;;;;;6.75;1.00;;;;;;;;;;4972797;28;20030;-67
2022/11/05 12:38:30;;;;;;;8.95;1.67;;;;;;;;;;4972489;28;20121;-67
2022/11/05 12:41:04;;;;;;;8.45;1.45;;;;;;;;;;4960076;28;20085;-69
2022/11/05 12:43:30;;;;;;;6.25;1.30;;;;;;;;;;4973029;28;20035;-69
2022/11/05 12:46:27;;;;;;;8.88;1.95;;;;;;;;;;4972327;28;20034;-66
2022/11/05 12:49:10;;;;;;;5.70;1.35;;;;;;;;;;4972510;28;20077;-67
2022/11/05 12:51:50;;;;;;;5.10;1.20;;;;;;;;;;4972395;28;20056;-67
2022/11/05 12:54:16;;;;;;;;;;;;;;;;;;4944167;29;20124;-67
2022/11/05 12:56:48;;;;;;;9.65;1.50;;;;;;;;;;4953056;29;19918;-68
2022/11/05 12:59:23;;;;;;;3.58;1.05;;;;;;;;;;4952842;29;20144;-67
2022/11/05 13:02:07;;;;;;;3.70;1.40;;;;;;;;;;4955565;28;20027;-67
2022/11/05 13:04:42;;;;;;;4.13;1.63;;;;;;;;;;4993842;28;20538;-67
2022/11/05 13:07:12;;;;;;;4.15;0.80;;;;;;;;;;4993673;28;20077;-68
2022/11/05 13:09:48;;;;;;;4.68;0.95;;;;;;;;;;4993430;28;20023;-68
2022/11/05 13:12:17;;;;;;;6.30;1.25;;;;;;;;;;4993808;28;20042;-68
2022/11/05 13:15:11;;;;;;;2.65;0.90;;;;;;;;;;4993444;28;20033;-68
2022/11/05 13:18:03;;;;;;;5.25;1.33;;;;;;;;;;4993711;28;20037;-68
2022/11/05 13:20:33;;;;;;;5.95;1.20;;;;;;;;;;4990891;28;20047;-68
2022/11/05 13:23:15;;;;;;;6.15;1.52;;;;;;;;;;4993552;28;20134;-68
2022/11/05 13:25:50;;;;;;;5.07;1.10;;;;;;;;;;4993356;28;20113;-68
2022/11/05 13:28:40;;;;;;;7.63;1.92;;;;;;;;;;4993085;28;20073;-68
2022/11/05 13:31:14;;;;;;;5.40;1.60;;;;;;;;;;4992766;28;20061;-68
2022/11/05 13:33:46;;;;;;;7.75;1.77;;;;;;;;;;4993902;28;20034;-68
2022/11/05 13:39:13;;;;;;;5.10;1.83;;;;;;;;;;4996352;28;20037;-68
2022/11/05 13:42:03;;;;;;;4.90;1.08;;;;;;;;;;5006346;28;20029;-67
2022/11/05 13:45:01;;;;;;;4.40;1.13;;;;;;;;;;5004440;28;20042;-67
2022/11/05 13:47:45;;;;;;;6.30;1.38;;;;;;;;;;4996136;28;20486;-68
2022/11/05 13:50:38;;;;;;;4.00;1.00;;;;;;;;;;5000175;28;20038;-68
2022/11/05 13:53:22;;;;;;;5.40;1.10;;;;;;;;;;4984244;28;20383;-67
2022/11/05 13:56:25;;;;;;;6.70;1.20;;;;;;;;;;4983366;28;20472;-67
2022/11/05 13:59:29;;;;;;;7.18;1.27;;;;;;;;;;5003009;28;20030;-67
2022/11/05 14:02:04;;;;;;;8.07;1.05;;;;;;;;;;4990878;28;20034;-67
2022/11/05 14:04:37;;;;;;;6.38;1.20;;;;;;;;;;5004404;28;20018;-68
2022/11/05 14:07:14;;;;;;;6.78;1.45;;;;;;;;;;5012807;28;20077;-67
2022/11/05 14:09:41;;;;;;;6.20;1.27;;;;;;;;;;5001422;28;20029;-67
2022/11/05 14:12:24;;;;;;;6.82;1.30;;;;;;;;;;5007092;28;20037;-68
2022/11/05 14:14:54;;;;;;;6.72;1.35;;;;;;;;;;5010076;28;20494;-67
2022/11/05 14:17:33;;;;;;;8.43;1.40;;;;;;;;;;5012637;28;20383;-68
2022/11/05 14:20:01;;;;;;;2.65;0.85;;;;;;;;;;5003815;28;20033;-68
2022/11/05 14:22:36;;;;;;;7.85;1.20;;;;;;;;;;5004683;28;20026;-66
2022/11/05 14:25:23;;;;;;;6.13;1.10;;;;;;;;;;5012415;28;20483;-67
2022/11/05 14:27:51;;;;;;;8.95;1.45;;;;;;;;;;4983501;28;20058;-67
2022/11/05 14:30:39;;;;;;;7.10;1.30;;;;;;;;;;4986624;28;20046;-68
2022/11/05 14:33:13;;;;;;;4.70;1.27;;;;;;;;;;5007213;28;20026;-67
2022/11/05 14:35:38;;;;;;;5.97;1.35;;;;;;;;;;5011448;28;20026;-67
2022/11/05 14:38:16;;;;;;;7.53;1.50;;;;;;;;;;4994969;28;20459;-68
2022/11/05 14:40:43;;;;;;;6.35;1.52;;;;;;;;;;4994436;28;20053;-68
2022/11/05 14:43:24;;;;;;;4.13;1.27;;;;;;;;;;4994483;28;20383;-72
2022/11/05 14:46:02;;;;;;;7.97;1.65;;;;;;;;;;4995763;28;20034;-70
2022/11/05 14:48:45;;;;;;;8.85;1.50;;;;;;;;;;4995861;28;20026;-69
2022/11/05 14:51:36;;;;;;;10.00;1.77;;;;;;;;;;4995675;28;20027;-70
2022/11/05 14:54:04;;;;;;;10.25;2.13;;;;;;;;;;4998570;28;20022;-70
2022/11/05 14:56:48;;;;;;;9.27;2.00;;;;;;;;;;5014502;28;20096;-68
2022/11/05 14:59:23;;;;;;;8.75;2.33;;;;;;;;;;5014215;28;20527;-69
2022/11/05 15:01:48;;;;;;;11.57;3.17;;;;;;;;;;5014440;28;20101;-69
2022/11/05 15:04:26;;;;;;;10.18;2.70;;;;;;;;;;5014047;28;20105;-68
2022/11/05 15:07:03;;;;;;;9.70;3.03;;;;;;;;;;5014597;28;20018;-69
2022/11/05 15:09:49;;;;;;;8.10;2.83;;;;;;;;;;5014158;28;20054;-69
2022/11/05 15:12:34;;;;;;;14.05;3.40;;;;;;;;;;5013813;28;20030;-68
2022/11/05 15:15:19;;;;;;;9.40;3.08;;;;;;;;;;5013672;28;20100;-69
2022/11/05 15:17:56;;;;;;;16.67;5.20;;;;;;;;;;5013487;28;20033;-69
2022/11/05 15:20:52;;;;;;;13.00;3.50;;;;;;;;;;5013766;28;20025;-70
2022/11/05 15:23:21;;;;;;;13.85;3.13;;;;;;;;;;5013410;28;20475;-70
2022/11/05 15:26:32;;;;;;;8.57;2.90;;;;;;;;;;5013342;28;20388;-69
2022/11/05 15:28:59;;;;;;;14.60;4.10;;;;;;;;;;5012884;28;20077;-68
2022/11/05 15:31:32;;;;;;;14.70;2.78;;;;;;;;;;4995500;28;20093;-69
2022/11/05 15:34:21;;;;;;;10.40;2.70;;;;;;;;;;4995473;28;20116;-70
2022/11/05 15:36:59;;;;;;;8.35;2.70;;;;;;;;;;4995767;28;20424;-68
2022/11/05 15:39:37;;;;;;;14.52;3.30;;;;;;;;;;4995391;28;20100;-70
2022/11/05 15:42:05;;;;;;;12.82;3.25;;;;;;;;;;4995541;28;20030;-68
2022/11/05 15:44:37;;;;;;;9.07;3.08;;;;;;;;;;4995254;28;20041;-69
2022/11/05 15:47:16;;;;;;;14.68;3.00;;;;;;;;;;4995299;28;20116;-68
2022/11/05 15:49:45;;;;;;;6.70;2.10;;;;;;;;;;4995413;28;20053;-69
2022/11/05 15:52:16;;;;;;;11.52;2.10;;;;;;;;;;4995269;28;20034;-66
2022/11/05 15:54:42;;;;;;;6.93;2.25;;;;;;;;;;4995001;28;20088;-69
2022/11/05 15:57:21;;;;;;;5.63;1.90;;;;;;;;;;4995283;28;20018;-70